Time;durP1;ratioP1;P1;durP2;ratioP2;P2;SDS_P1;SDS_P2;PMS_P1;PMS_P2;Temp;Humidity;BMP_temperature;BMP_pressure;BME280_temperature;BME280_humidity;BME280_pressure;Samples;Min_cycle;Max_cycle;Signal;HPM_P1;HPM_P2
2023/05/18 00:01:26;;;;;;;;;;;;;;;8.5;51.21875;103005;;;;-67
2023/05/18 00:06:26;;;;;;;;;;;;;;;8.48;51.41699;103006.5;;;;-66
2023/05/18 00:11:28;;;;;;;;;;;;;;;8.43;51.53223;103003;;;;-67
2023/05/18 00:16:26;;;;;;;;;;;;;;;8.35;51.44434;103001.9;;;;-67
2023/05/18 00:21:29;;;;;;;;;;;;;;;8.35;51.57813;103003.4;;;;-67
2023/05/18 00:26:26;;;;;;;;;;;;;;;8.32;51.58496;103004.7;;;;-68
2023/05/18 00:28:17;;;;;;;0.3;0.1;;;;;;;;;;;;;-68
2023/05/18 00:31:26;;;;;;;;;;;;;;;8.24;51.60938;103007.1;;;;-68
2023/05/18 00:36:26;;;;;;;;;;;;;;;8.21;51.61719;103007.3;;;;-67
2023/05/18 00:41:26;;;;;;;;;;;;;;;8.18;51.95703;103008.9;;;;-68
2023/05/18 00:46:27;;;;;;;;;;;;;;;8.19;51.88184;103010.1;;;;-67
2023/05/18 00:51:27;;;;;;;;;;;;;;;8.18;51.86816;103005.1;;;;-66
2023/05/18 00:56:27;;;;;;;;;;;;;;;8.13;51.99609;103008.5;;;;-67
2023/05/18 00:58:18;;;;;;;0.4;0.3;;;;;;;;;;;;;-67
2023/05/18 01:01:30;;;;;;;;;;;;;;;8.1;51.94824;103000.6;;;;-67
2023/05/18 01:06:31;;;;;;;;;;;;;;;8.15;51.7207;103002.8;;;;-66
2023/05/18 01:11:35;;;;;;;;;;;;;;;8.11;51.75;103005.3;;;;-66
2023/05/18 01:16:31;;;;;;;;;;;;;;;8.09;52.00195;103008.5;;;;-68
2023/05/18 01:21:36;;;;;;;;;;;;;;;8.06;52;103010.6;;;;-67
2023/05/18 01:26:28;;;;;;;;;;;;;;;8.1;51.92676;103016.3;;;;-67
2023/05/18 01:28:21;;;;;;;0.3;0.2;;;;;;;;;;;;;-66
2023/05/18 01:31:26;;;;;;;;;;;;;;;8.07;51.88867;103013.6;;;;-67
2023/05/18 01:36:26;;;;;;;;;;;;;;;8.06;51.89844;103007.7;;;;-68
2023/05/18 01:41:29;;;;;;;;;;;;;;;8.06;52;103010.1;;;;-67
2023/05/18 01:46:33;;;;;;;;;;;;;;;8.03;52.01855;103010.1;;;;-66
2023/05/18 01:51:29;;;;;;;;;;;;;;;8.03;52.05078;103011.5;;;;-66
2023/05/18 01:56:27;;;;;;;;;;;;;;;8.04;51.94141;103011.4;;;;-67
2023/05/18 01:58:19;;;;;;;0.3;0.1;;;;;;;;;;;;;-67
2023/05/18 02:01:27;;;;;;;;;;;;;;;8.02;52.09277;103012.4;;;;-70
2023/05/18 02:06:26;;;;;;;;;;;;;;;8.02;52.22559;103015.1;;;;-67
2023/05/18 02:11:26;;;;;;;;;;;;;;;8.03;52.22754;103018.7;;;;-69
2023/05/18 02:16:26;;;;;;;;;;;;;;;8.01;52.12598;103017.9;;;;-67
2023/05/18 02:21:26;;;;;;;;;;;;;;;8;52.14648;103021.2;;;;-68
2023/05/18 02:26:30;;;;;;;;;;;;;;;7.95;52.24121;103015.7;;;;-67
2023/05/18 02:28:20;;;;;;;0.2;0.1;;;;;;;;;;;;;-67
2023/05/18 02:31:28;;;;;;;;;;;;;;;7.95;52.14063;103010.7;;;;-67
2023/05/18 02:36:26;;;;;;;;;;;;;;;7.93;52.20508;103017.2;;;;-68
2023/05/18 02:41:26;;;;;;;;;;;;;;;7.93;51.99414;103013.5;;;;-67
2023/05/18 02:46:26;;;;;;;;;;;;;;;7.88;52.2207;103009.8;;;;-70
2023/05/18 02:51:29;;;;;;;;;;;;;;;7.83;52.34863;103010.4;;;;-66
2023/05/18 02:56:27;;;;;;;;;;;;;;;7.77;52.29688;103011.1;;;;-69
2023/05/18 02:58:21;;;;;;;0.2;0.1;;;;;;;;;;;;;-70
2023/05/18 03:01:27;;;;;;;;;;;;;;;7.74;52.46973;103011.7;;;;-66
2023/05/18 03:06:26;;;;;;;;;;;;;;;7.73;52.41406;103011.3;;;;-68
2023/05/18 03:11:26;;;;;;;;;;;;;;;7.75;52.33789;103010.7;;;;-66
2023/05/18 03:16:27;;;;;;;;;;;;;;;7.75;52.26074;103011.4;;;;-67
2023/05/18 03:21:32;;;;;;;;;;;;;;;7.77;52.14063;103013.2;;;;-67
2023/05/18 03:26:29;;;;;;;;;;;;;;;7.76;52.31836;103015.8;;;;-66
2023/05/18 03:28:21;;;;;;;0.3;0.1;;;;;;;;;;;;;-70
2023/05/18 03:31:26;;;;;;;;;;;;;;;7.78;52.28711;103016.4;;;;-68
2023/05/18 03:36:26;;;;;;;;;;;;;;;7.79;52.45508;103009.8;;;;-67
2023/05/18 03:41:28;;;;;;;;;;;;;;;7.81;52.25781;103007.4;;;;-66
2023/05/18 03:46:27;;;;;;;;;;;;;;;7.84;52.17188;103012.5;;;;-67
2023/05/18 03:51:27;;;;;;;;;;;;;;;7.9;52.24512;103013.9;;;;-68
2023/05/18 03:56:27;;;;;;;;;;;;;;;7.84;52.39355;103019.9;;;;-67
2023/05/18 03:58:22;;;;;;;0.6;0.3;;;;;;;;;;;;;-68
2023/05/18 04:01:29;;;;;;;;;;;;;;;7.86;52.30762;103017.7;;;;-68
2023/05/18 04:06:26;;;;;;;;;;;;;;;7.89;52.36719;103018.4;;;;-66
2023/05/18 04:11:26;;;;;;;;;;;;;;;7.89;52.44336;103022.6;;;;-67
2023/05/18 04:16:26;;;;;;;;;;;;;;;7.88;52.36523;103021.4;;;;-67
2023/05/18 04:21:26;;;;;;;;;;;;;;;7.89;52.4668;103022.9;;;;-66
2023/05/18 04:26:26;;;;;;;;;;;;;;;7.85;52.42676;103028.4;;;;-67
2023/05/18 04:28:24;;;;;;;0.2;0.1;;;;;;;;;;;;;-67
2023/05/18 04:31:26;;;;;;;;;;;;;;;7.85;52.51563;103034;;;;-68
2023/05/18 04:36:29;;;;;;;;;;;;;;;7.89;52.55469;103034;;;;-68
2023/05/18 04:41:27;;;;;;;;;;;;;;;7.93;52.52637;103027.7;;;;-68
2023/05/18 04:46:27;;;;;;;;;;;;;;;8.01;52.43652;103038.4;;;;-67
2023/05/18 04:51:27;;;;;;;;;;;;;;;8.11;52.44824;103047.8;;;;-68
2023/05/18 04:56:26;;;;;;;;;;;;;;;8.17;52.2334;103047;;;;-70
2023/05/18 04:58:22;;;;;;;0.2;0.1;;;;;;;;;;;;;-67
2023/05/18 05:01:26;;;;;;;;;;;;;;;8.26;52.12402;103046;;;;-67
2023/05/18 05:06:26;;;;;;;;;;;;;;;8.37;52.04785;103040.1;;;;-69
2023/05/18 05:11:26;;;;;;;;;;;;;;;8.52;52.17578;103041.9;;;;-68
2023/05/18 05:16:26;;;;;;;;;;;;;;;8.67;51.97168;103044.1;;;;-67
2023/05/18 05:21:26;;;;;;;;;;;;;;;8.77;51.92969;103051.7;;;;-68
2023/05/18 05:26:26;;;;;;;;;;;;;;;8.92;52.00195;103061.6;;;;-67
2023/05/18 05:28:23;;;;;;;0.2;0.1;;;;;;;;;;;;;-67
2023/05/18 05:31:26;;;;;;;;;;;;;;;9.11;51.76953;103067;;;;-69
2023/05/18 05:36:26;;;;;;;;;;;;;;;9.15;51.75;103063.4;;;;-68
2023/05/18 05:41:26;;;;;;;;;;;;;;;9.27;51.81055;103061.7;;;;-67
2023/05/18 05:46:27;;;;;;;;;;;;;;;9.4;51.8916;103061.6;;;;-67
2023/05/18 05:51:26;;;;;;;;;;;;;;;9.52;52.01758;103067.6;;;;-68
2023/05/18 05:56:26;;;;;;;;;;;;;;;9.6;51.86133;103068.8;;;;-66
2023/05/18 05:58:24;;;;;;;0.2;0.1;;;;;;;;;;;;;-68
2023/05/18 06:01:26;;;;;;;;;;;;;;;9.67;52.13574;103074.6;;;;-69
2023/05/18 06:06:27;;;;;;;;;;;;;;;9.73;52.06641;103079.7;;;;-68
2023/05/18 06:11:26;;;;;;;;;;;;;;;9.81;51.81836;103086.9;;;;-67
2023/05/18 06:16:27;;;;;;;;;;;;;;;9.92;51.90918;103084.4;;;;-68
2023/05/18 06:21:28;;;;;;;;;;;;;;;10.01;51.97559;103087.8;;;;-68
2023/05/18 06:26:29;;;;;;;;;;;;;;;10.1;51.99902;103100.4;;;;-68
2023/05/18 06:28:25;;;;;;;0.2;0.1;;;;;;;;;;;;;-68
2023/05/18 06:31:26;;;;;;;;;;;;;;;10.21;52.23438;103105.2;;;;-69
2023/05/18 06:36:26;;;;;;;;;;;;;;;10.36;52.07422;103102.3;;;;-68
2023/05/18 06:41:26;;;;;;;;;;;;;;;10.51;51.83496;103096.3;;;;-68
2023/05/18 06:46:29;;;;;;;;;;;;;;;10.64;51.68262;103106.2;;;;-68
2023/05/18 06:51:26;;;;;;;;;;;;;;;10.72;51.6377;103107.7;;;;-68
2023/05/18 06:56:26;;;;;;;;;;;;;;;10.76;51.61914;103106.9;;;;-67
2023/05/18 06:58:26;;;;;;;0.3;0.1;;;;;;;;;;;;;-68
2023/05/18 07:01:26;;;;;;;;;;;;;;;10.8;51.64648;103115.5;;;;-68
2023/05/18 07:06:26;;;;;;;;;;;;;;;10.83;51.62793;103118.2;;;;-69
2023/05/18 07:11:27;;;;;;;;;;;;;;;10.88;51.56641;103119.6;;;;-67
2023/05/18 07:16:26;;;;;;;;;;;;;;;10.95;51.54199;103117.6;;;;-68
2023/05/18 07:21:26;;;;;;;;;;;;;;;11.02;51.48242;103125;;;;-69
2023/05/18 07:26:26;;;;;;;;;;;;;;;11.08;51.44531;103125;;;;-68
2023/05/18 07:28:30;;;;;;;0.3;0.2;;;;;;;;;;;;;-66
2023/05/18 07:31:26;;;;;;;;;;;;;;;11.16;51.3418;103127;;;;-68
2023/05/18 07:36:27;;;;;;;;;;;;;;;11.31;51.30469;103130;;;;-69
2023/05/18 07:41:26;;;;;;;;;;;;;;;11.43;51.27344;103121.4;;;;-69
2023/05/18 07:46:26;;;;;;;;;;;;;;;11.55;50.59375;103127.2;;;;-68
2023/05/18 07:51:26;;;;;;;;;;;;;;;11.73;50.51563;103128;;;;-69
2023/05/18 07:56:26;;;;;;;;;;;;;;;11.9;50.12012;103129.2;;;;-67
2023/05/18 07:58:28;;;;;;;0.2;0.1;;;;;;;;;;;;;-68
2023/05/18 08:01:28;;;;;;;;;;;;;;;12.06;49.90332;103125.5;;;;-67
2023/05/18 08:06:26;;;;;;;;;;;;;;;12.23;49.66406;103130.7;;;;-67
2023/05/18 08:11:26;;;;;;;;;;;;;;;12.36;49.4209;103129.2;;;;-67
2023/05/18 08:16:26;;;;;;;;;;;;;;;12.51;49.5498;103130;;;;-68
2023/05/18 08:21:27;;;;;;;;;;;;;;;12.68;49.23242;103124.6;;;;-69
2023/05/18 08:26:29;;;;;;;;;;;;;;;12.87;48.69238;103125.8;;;;-69
2023/05/18 08:28:30;;;;;;;0.2;0;;;;;;;;;;;;;-67
2023/05/18 08:31:26;;;;;;;;;;;;;;;12.97;48.79492;103124.9;;;;-67
2023/05/18 08:36:26;;;;;;;;;;;;;;;13.03;48.6543;103125.4;;;;-68
2023/05/18 08:41:28;;;;;;;;;;;;;;;13.12;48.51855;103123.9;;;;-68
2023/05/18 08:46:29;;;;;;;;;;;;;;;13.28;48.61426;103125.4;;;;-67
2023/05/18 08:51:27;;;;;;;;;;;;;;;13.44;48.29492;103119.2;;;;-68
2023/05/18 08:56:27;;;;;;;;;;;;;;;13.52;47.77539;103115.6;;;;-68
2023/05/18 08:58:35;;;;;;;0.2;0.1;;;;;;;;;;;;;-69
2023/05/18 09:01:27;;;;;;;;;;;;;;;13.59;47.77246;103115.2;;;;-68
2023/05/18 09:06:27;;;;;;;;;;;;;;;13.68;47.5459;103116.1;;;;-67
2023/05/18 09:11:27;;;;;;;;;;;;;;;13.77;47.24121;103109.1;;;;-68
2023/05/18 09:16:26;;;;;;;;;;;;;;;13.85;47.09082;103103;;;;-67
2023/05/18 09:21:26;;;;;;;;;;;;;;;13.97;46.90137;103091.1;;;;-68
2023/05/18 09:26:26;;;;;;;;;;;;;;;14.19;46.9707;103087.7;;;;-67
2023/05/18 09:28:37;;;;;;;0.2;0.1;;;;;;;;;;;;;-69
2023/05/18 09:31:27;;;;;;;;;;;;;;;14.43;46.55469;103085.5;;;;-67
2023/05/18 09:36:31;;;;;;;;;;;;;;;14.68;46.2998;103087.7;;;;-68
2023/05/18 09:41:29;;;;;;;;;;;;;;;14.86;45.88965;103087.3;;;;-67
2023/05/18 09:46:26;;;;;;;;;;;;;;;14.99;45.66699;103087.6;;;;-69
2023/05/18 09:51:26;;;;;;;;;;;;;;;15.16;45.55957;103085.4;;;;-69
2023/05/18 09:56:26;;;;;;;;;;;;;;;15.37;45.46875;103087;;;;-68
2023/05/18 09:58:35;;;;;;;0.2;0.1;;;;;;;;;;;;;-68
2023/05/18 10:01:26;;;;;;;;;;;;;;;15.48;44.98242;103084.8;;;;-67
2023/05/18 10:06:29;;;;;;;;;;;;;;;15.54;44.95508;103091;;;;-69
2023/05/18 10:11:26;;;;;;;;;;;;;;;15.59;44.9834;103091.6;;;;-69
2023/05/18 10:16:28;;;;;;;;;;;;;;;15.62;44.75879;103085.2;;;;-68
2023/05/18 10:21:27;;;;;;;;;;;;;;;15.68;44.89063;103082.6;;;;-69
2023/05/18 10:26:30;;;;;;;;;;;;;;;15.78;44.45898;103080.2;;;;-69
2023/05/18 10:28:40;;;;;;;0.2;0;;;;;;;;;;;;;-68
2023/05/18 10:31:28;;;;;;;;;;;;;;;15.86;44.78418;103078.8;;;;-69
2023/05/18 10:36:28;;;;;;;;;;;;;;;16.03;44.27051;103078.5;;;;-69
2023/05/18 10:41:27;;;;;;;;;;;;;;;16.26;44.49609;103072;;;;-68
2023/05/18 10:46:26;;;;;;;;;;;;;;;16.48;44.17871;103078.1;;;;-68
2023/05/18 10:51:27;;;;;;;;;;;;;;;16.62;43.71582;103071.1;;;;-68
2023/05/18 10:56:26;;;;;;;;;;;;;;;16.65;43.19629;103071.2;;;;-69
2023/05/18 10:58:39;;;;;;;0.2;0;;;;;;;;;;;;;-69
2023/05/18 11:01:26;;;;;;;;;;;;;;;16.71;43.47559;103067.1;;;;-69
2023/05/18 11:06:26;;;;;;;;;;;;;;;16.82;43.75781;103065.8;;;;-68
2023/05/18 11:11:28;;;;;;;;;;;;;;;16.86;43.14941;103062.1;;;;-71
2023/05/18 11:16:35;;;;;;;;;;;;;;;16.99;43.77539;103063.1;;;;-69
2023/05/18 11:21:34;;;;;;;;;;;;;;;17.14;43.72168;103056.3;;;;-70
2023/05/18 11:26:31;;;;;;;;;;;;;;;17.32;43.93262;103053.8;;;;-70
2023/05/18 11:28:46;;;;;;;0.8;0.2;;;;;;;;;;;;;-69
2023/05/18 11:31:36;;;;;;;;;;;;;;;17.52;43.32813;103048.4;;;;-68
2023/05/18 11:36:31;;;;;;;;;;;;;;;17.81;43.38965;103052.7;;;;-68
2023/05/18 11:41:38;;;;;;;;;;;;;;;17.96;42.11816;103045.5;;;;-69
2023/05/18 11:46:26;;;;;;;;;;;;;;;18.12;42.875;103046;;;;-68
2023/05/18 11:51:28;;;;;;;;;;;;;;;18.23;43.71582;103038.9;;;;-68
2023/05/18 11:56:27;;;;;;;;;;;;;;;18.64;43.5293;103032.7;;;;-69
2023/05/18 11:58:44;;;;;;;0.4;0.1;;;;;;;;;;;;;-69
2023/05/18 12:01:27;;;;;;;;;;;;;;;18.89;43.38184;103020.4;;;;-68
2023/05/18 12:06:27;;;;;;;;;;;;;;;19.24;43.4502;103018.9;;;;-68
2023/05/18 12:11:29;;;;;;;;;;;;;;;19.52;42.76953;103011.1;;;;-69
2023/05/18 12:16:26;;;;;;;;;;;;;;;19.61;42.5957;103011.7;;;;-67
2023/05/18 12:21:28;;;;;;;;;;;;;;;19.54;43.8457;103009.9;;;;-68
2023/05/18 12:26:27;;;;;;;;;;;;;;;19.72;42.73242;103010.8;;;;-71
2023/05/18 12:28:47;;;;;;;0.2;0.1;;;;;;;;;;;;;-68
2023/05/18 12:31:26;;;;;;;;;;;;;;;19.74;42.2998;103011.5;;;;-70
2023/05/18 12:36:32;;;;;;;;;;;;;;;19.63;41.86621;103005.8;;;;-70
2023/05/18 12:41:29;;;;;;;;;;;;;;;19.66;42.05176;102995.9;;;;-69
2023/05/18 12:46:29;;;;;;;;;;;;;;;19.78;42.38281;102994.1;;;;-71
2023/05/18 12:51:30;;;;;;;;;;;;;;;19.79;42.46484;102994.7;;;;-69
2023/05/18 12:56:28;;;;;;;;;;;;;;;19.81;42.44336;102998.5;;;;-68
2023/05/18 12:59:02;;;;;;;0.3;0.1;;;;;;;;;;;;;-68
2023/05/18 13:01:30;;;;;;;;;;;;;;;19.78;42.40625;102993.6;;;;-69
2023/05/18 13:06:26;;;;;;;;;;;;;;;19.66;42.39453;102985;;;;-68
2023/05/18 13:11:26;;;;;;;;;;;;;;;19.51;42.07227;102990.6;;;;-69
2023/05/18 13:16:28;;;;;;;;;;;;;;;19.37;42.4248;102984.6;;;;-70
2023/05/18 13:21:26;;;;;;;;;;;;;;;19.36;42.77734;102980.6;;;;-68
2023/05/18 13:26:27;;;;;;;;;;;;;;;19.44;42.68262;102980.3;;;;-67
2023/05/18 13:28:54;;;;;;;0.2;0;;;;;;;;;;;;;-68
2023/05/18 13:31:28;;;;;;;;;;;;;;;19.56;42.28223;102975.5;;;;-68
2023/05/18 13:36:28;;;;;;;;;;;;;;;19.68;42.92188;102969.5;;;;-70
2023/05/18 13:41:26;;;;;;;;;;;;;;;19.89;42.93164;102967.9;;;;-68
2023/05/18 13:46:26;;;;;;;;;;;;;;;20.01;42.72461;102967.3;;;;-67
2023/05/18 13:51:26;;;;;;;;;;;;;;;20.04;42.86621;102963.2;;;;-69
2023/05/18 13:56:26;;;;;;;;;;;;;;;20.15;43.19629;102961.4;;;;-68
2023/05/18 13:58:55;;;;;;;0.2;0.1;;;;;;;;;;;;;-68
2023/05/18 14:01:31;;;;;;;;;;;;;;;20.28;42.5918;102952.3;;;;-69
2023/05/18 14:06:26;;;;;;;;;;;;;;;20.4;42.6377;102945.7;;;;-69
2023/05/18 14:11:26;;;;;;;;;;;;;;;20.69;42.72266;102941;;;;-69
2023/05/18 14:16:26;;;;;;;;;;;;;;;21.13;42.08789;102940.1;;;;-68
2023/05/18 14:21:26;;;;;;;;;;;;;;;21.5;42.16797;102932;;;;-68
2023/05/18 14:26:27;;;;;;;;;;;;;;;21.9;41.85059;102926.2;;;;-69
2023/05/18 14:28:58;;;;;;;0.3;0.1;;;;;;;;;;;;;-70
2023/05/18 14:31:26;;;;;;;;;;;;;;;22.2;41.70703;102928;;;;-69
2023/05/18 14:36:26;;;;;;;;;;;;;;;22.55;40.71582;102920.5;;;;-68
2023/05/18 14:41:26;;;;;;;;;;;;;;;22.71;41.12109;102917.5;;;;-68
2023/05/18 14:46:26;;;;;;;;;;;;;;;22.85;41.22656;102910.9;;;;-68
2023/05/18 14:51:26;;;;;;;;;;;;;;;22.77;41.06934;102903.8;;;;-68
2023/05/18 14:56:26;;;;;;;;;;;;;;;22.74;40.26074;102900.3;;;;-69
2023/05/18 14:59:02;;;;;;;0.2;0;;;;;;;;;;;;;-67
2023/05/18 15:01:26;;;;;;;;;;;;;;;22.76;41.49512;102897.5;;;;-68
2023/05/18 15:06:27;;;;;;;;;;;;;;;22.81;39.79492;102892.5;;;;-71
2023/05/18 15:11:26;;;;;;;;;;;;;;;22.84;40.44238;102890.7;;;;-68
2023/05/18 15:16:26;;;;;;;;;;;;;;;22.81;39.89844;102874.4;;;;-68
2023/05/18 15:21:26;;;;;;;;;;;;;;;22.77;40.4248;102873.6;;;;-68
2023/05/18 15:26:26;;;;;;;;;;;;;;;22.79;40.10352;102873;;;;-69
2023/05/18 15:29:05;;;;;;;0.3;0.1;;;;;;;;;;;;;-70
2023/05/18 15:31:26;;;;;;;;;;;;;;;22.76;39.76758;102866.7;;;;-70
2023/05/18 15:36:26;;;;;;;;;;;;;;;22.73;39.23535;102867.3;;;;-69
2023/05/18 15:41:31;;;;;;;;;;;;;;;22.65;39.91992;102864.3;;;;-69
2023/05/18 15:46:27;;;;;;;;;;;;;;;22.73;39.90332;102859.8;;;;-68
2023/05/18 15:51:26;;;;;;;;;;;;;;;22.83;39.04785;102861.4;;;;-67
2023/05/18 15:56:26;;;;;;;;;;;;;;;22.77;40.04395;102857;;;;-68
2023/05/18 15:59:09;;;;;;;0.2;0;;;;;;;;;;;;;-68
2023/05/18 16:01:26;;;;;;;;;;;;;;;22.67;39.88574;102853.8;;;;-69
2023/05/18 16:06:26;;;;;;;;;;;;;;;22.68;39.02441;102843.3;;;;-70
2023/05/18 16:11:26;;;;;;;;;;;;;;;22.66;38.99805;102847;;;;-69
2023/05/18 16:16:26;;;;;;;;;;;;;;;22.59;38.42773;102847.8;;;;-68
2023/05/18 16:21:26;;;;;;;;;;;;;;;22.37;39.05469;102842.8;;;;-69
2023/05/18 16:26:26;;;;;;;;;;;;;;;22.18;39.55469;102840.8;;;;-68
2023/05/18 16:29:13;;;;;;;0.2;0.1;;;;;;;;;;;;;-68
2023/05/18 16:31:26;;;;;;;;;;;;;;;22.09;40.49023;102833.2;;;;-68
2023/05/18 16:36:26;;;;;;;;;;;;;;;22.05;40.07227;102832.5;;;;-67
2023/05/18 16:41:26;;;;;;;;;;;;;;;21.93;40.07324;102826.1;;;;-67
2023/05/18 16:46:26;;;;;;;;;;;;;;;21.88;40.33203;102821.3;;;;-68
2023/05/18 16:51:26;;;;;;;;;;;;;;;21.82;40.23535;102825.2;;;;-72
2023/05/18 16:56:26;;;;;;;;;;;;;;;21.7;40.12012;102821.6;;;;-73
2023/05/18 16:59:17;;;;;;;0.2;0.1;;;;;;;;;;;;;-74
2023/05/18 17:01:29;;;;;;;;;;;;;;;21.53;39.48633;102828.8;;;;-73
2023/05/18 17:06:26;;;;;;;;;;;;;;;21.4;40.01367;102825.9;;;;-73
2023/05/18 17:11:26;;;;;;;;;;;;;;;21.19;39.52441;102820.7;;;;-74
2023/05/18 17:16:31;;;;;;;;;;;;;;;21.07;41.26855;102818.6;;;;-73
2023/05/18 17:21:27;;;;;;;;;;;;;;;20.92;41.91895;102814.8;;;;-73
2023/05/18 17:26:29;;;;;;;;;;;;;;;20.81;40.71777;102809.3;;;;-70
2023/05/18 17:29:20;;;;;;;0.2;0.1;;;;;;;;;;;;;-68
2023/05/18 17:31:26;;;;;;;;;;;;;;;20.63;41.9502;102817.4;;;;-70
2023/05/18 17:36:29;;;;;;;;;;;;;;;20.45;41.58984;102814.8;;;;-66
2023/05/18 17:41:26;;;;;;;;;;;;;;;20.29;41.74609;102820.9;;;;-67
2023/05/18 17:46:26;;;;;;;;;;;;;;;20.12;41.66113;102824.9;;;;-69
2023/05/18 17:51:26;;;;;;;;;;;;;;;19.94;42.33105;102823.2;;;;-68
2023/05/18 17:56:26;;;;;;;;;;;;;;;19.79;42.77344;102823.4;;;;-68
2023/05/18 17:59:24;;;;;;;0.2;0;;;;;;;;;;;;;-69
2023/05/18 18:01:28;;;;;;;;;;;;;;;19.58;42.30664;102821.5;;;;-69
2023/05/18 18:06:26;;;;;;;;;;;;;;;19.35;42.57129;102827.2;;;;-70
2023/05/18 18:11:27;;;;;;;;;;;;;;;19.16;43.18066;102827.2;;;;-69
2023/05/18 18:16:26;;;;;;;;;;;;;;;19;43.32422;102832.4;;;;-67
2023/05/18 18:21:26;;;;;;;;;;;;;;;18.81;43.56738;102830.3;;;;-67
2023/05/18 18:26:26;;;;;;;;;;;;;;;18.62;44.07324;102827.5;;;;-67
2023/05/18 18:29:28;;;;;;;0.3;0.2;;;;;;;;;;;;;-69
2023/05/18 18:31:26;;;;;;;;;;;;;;;18.44;44.37402;102830.3;;;;-67
2023/05/18 18:36:26;;;;;;;;;;;;;;;18.21;44.68164;102833.8;;;;-68
2023/05/18 18:41:26;;;;;;;;;;;;;;;18.02;45.13965;102834;;;;-69
2023/05/18 18:46:26;;;;;;;;;;;;;;;17.78;45.2627;102830;;;;-69
2023/05/18 18:51:26;;;;;;;;;;;;;;;17.6;45.49414;102834.4;;;;-68
2023/05/18 18:56:27;;;;;;;;;;;;;;;17.35;45.92383;102839.9;;;;-69
2023/05/18 18:59:30;;;;;;;0.5;0.2;;;;;;;;;;;;;-69
2023/05/18 19:01:26;;;;;;;;;;;;;;;17.16;46.3916;102842.7;;;;-68
2023/05/18 19:06:26;;;;;;;;;;;;;;;16.96;46.5293;102841.7;;;;-69
2023/05/18 19:11:26;;;;;;;;;;;;;;;16.78;46.36328;102845.6;;;;-68
2023/05/18 19:16:26;;;;;;;;;;;;;;;16.54;46.59863;102847.7;;;;-69
2023/05/18 19:21:27;;;;;;;;;;;;;;;16.36;46.23926;102849;;;;-69
2023/05/18 19:26:28;;;;;;;;;;;;;;;16.17;46.77441;102855.4;;;;-69
2023/05/18 19:29:35;;;;;;;0.2;0.1;;;;;;;;;;;;;-68
2023/05/18 19:31:26;;;;;;;;;;;;;;;15.94;46.96484;102853.7;;;;-67
2023/05/18 19:36:26;;;;;;;;;;;;;;;15.68;46.94824;102859.8;;;;-69
2023/05/18 19:41:27;;;;;;;;;;;;;;;15.5;46.97461;102862.7;;;;-69
2023/05/18 19:46:26;;;;;;;;;;;;;;;15.27;47.31152;102871;;;;-68
2023/05/18 19:51:26;;;;;;;;;;;;;;;15.08;47.6416;102877.7;;;;-68
2023/05/18 19:56:26;;;;;;;;;;;;;;;14.85;47.90918;102885.7;;;;-69
2023/05/18 19:59:35;;;;;;;0.2;0.1;;;;;;;;;;;;;-66
2023/05/18 20:01:28;;;;;;;;;;;;;;;14.68;48.60156;102882.2;;;;-69
2023/05/18 20:06:26;;;;;;;;;;;;;;;14.52;48.80957;102892.1;;;;-68
2023/05/18 20:11:26;;;;;;;;;;;;;;;14.34;49.20605;102892;;;;-68
2023/05/18 20:16:27;;;;;;;;;;;;;;;14.2;49.68457;102893.3;;;;-69
2023/05/18 20:21:26;;;;;;;;;;;;;;;14.04;49.59961;102891.8;;;;-69
2023/05/18 20:26:35;;;;;;;;;;;;;;;13.88;50.02148;102900.9;;;;-70
2023/05/18 20:29:37;;;;;;;0.3;0.1;;;;;;;;;;;;;-69
2023/05/18 20:31:26;;;;;;;;;;;;;;;13.78;50.26758;102898.3;;;;-68
2023/05/18 20:36:26;;;;;;;;;;;;;;;13.61;50.46094;102897.4;;;;-68
2023/05/18 20:41:29;;;;;;;;;;;;;;;13.5;50.47266;102897.8;;;;-68
2023/05/18 20:46:26;;;;;;;;;;;;;;;13.39;51.16699;102901.7;;;;-68
2023/05/18 20:51:26;;;;;;;;;;;;;;;13.24;51.62207;102902.1;;;;-68
2023/05/18 20:56:28;;;;;;;;;;;;;;;13.12;51.94336;102909.9;;;;-68
2023/05/18 20:59:39;;;;;;;0.2;0.1;;;;;;;;;;;;;-66
2023/05/18 21:01:29;;;;;;;;;;;;;;;13.04;52.18066;102920.8;;;;-69
2023/05/18 21:06:26;;;;;;;;;;;;;;;12.96;52.18359;102924.7;;;;-68
2023/05/18 21:11:26;;;;;;;;;;;;;;;12.85;52.23633;102922.9;;;;-68
2023/05/18 21:16:26;;;;;;;;;;;;;;;12.71;52.41113;102927.3;;;;-68
2023/05/18 21:21:26;;;;;;;;;;;;;;;12.63;52.70508;102929.3;;;;-69
2023/05/18 21:26:26;;;;;;;;;;;;;;;12.53;53.04004;102922.6;;;;-69
2023/05/18 21:29:41;;;;;;;0.2;0.1;;;;;;;;;;;;;-69
2023/05/18 21:31:27;;;;;;;;;;;;;;;12.46;52.88574;102919.3;;;;-70
2023/05/18 21:36:32;;;;;;;;;;;;;;;12.37;53.09863;102925;;;;-68
2023/05/18 21:41:26;;;;;;;;;;;;;;;12.28;53.2334;102925.9;;;;-68
2023/05/18 21:46:26;;;;;;;;;;;;;;;12.23;53.40625;102931.9;;;;-67
2023/05/18 21:51:26;;;;;;;;;;;;;;;12.12;53.62891;102934.8;;;;-68
2023/05/18 21:56:26;;;;;;;;;;;;;;;12.04;53.61914;102932.7;;;;-69
2023/05/18 21:59:43;;;;;;;0.2;0.1;;;;;;;;;;;;;-69
2023/05/18 22:01:26;;;;;;;;;;;;;;;11.98;53.72168;102936.7;;;;-69
2023/05/18 22:06:26;;;;;;;;;;;;;;;11.91;53.71289;102939.3;;;;-68
2023/05/18 22:11:26;;;;;;;;;;;;;;;11.82;53.7373;102941.5;;;;-68
2023/05/18 22:16:30;;;;;;;;;;;;;;;11.74;53.71582;102942.6;;;;-68
2023/05/18 22:21:26;;;;;;;;;;;;;;;11.68;54.14453;102933.5;;;;-67
2023/05/18 22:26:30;;;;;;;;;;;;;;;11.62;54.21484;102938.2;;;;-67
2023/05/18 22:29:45;;;;;;;0.2;0;;;;;;;;;;;;;-67
2023/05/18 22:31:26;;;;;;;;;;;;;;;11.53;54.75195;102946;;;;-67
2023/05/18 22:36:26;;;;;;;;;;;;;;;11.46;54.55273;102940.5;;;;-69
2023/05/18 22:41:26;;;;;;;;;;;;;;;11.4;54.86914;102934;;;;-69
2023/05/18 22:46:26;;;;;;;;;;;;;;;11.32;54.69238;102933.4;;;;-68
2023/05/18 22:51:27;;;;;;;;;;;;;;;11.3;55.11328;102935.1;;;;-66
2023/05/18 22:56:26;;;;;;;;;;;;;;;11.24;55.32813;102936.6;;;;-67
2023/05/18 22:59:46;;;;;;;0.2;0.1;;;;;;;;;;;;;-67
2023/05/18 23:01:26;;;;;;;;;;;;;;;11.21;55.6709;102939;;;;-67
2023/05/18 23:06:26;;;;;;;;;;;;;;;11.16;55.74316;102940.2;;;;-69
2023/05/18 23:11:27;;;;;;;;;;;;;;;11.11;56.38477;102942;;;;-68
2023/05/18 23:16:29;;;;;;;;;;;;;;;11.09;56.22559;102942.5;;;;-69
2023/05/18 23:21:26;;;;;;;;;;;;;;;11.05;56.41016;102938.9;;;;-67
2023/05/18 23:26:26;;;;;;;;;;;;;;;10.99;56.2998;102939.3;;;;-68
2023/05/18 23:29:47;;;;;;;0.2;0.1;;;;;;;;;;;;;-68
2023/05/18 23:31:26;;;;;;;;;;;;;;;10.97;56.34277;102944.7;;;;-67
2023/05/18 23:36:29;;;;;;;;;;;;;;;10.92;56.4707;102943.7;;;;-67
2023/05/18 23:41:26;;;;;;;;;;;;;;;10.85;56.76367;102946;;;;-67
2023/05/18 23:46:26;;;;;;;;;;;;;;;10.84;56.70508;102941.5;;;;-69
2023/05/18 23:51:28;;;;;;;;;;;;;;;10.78;56.9209;102936.8;;;;-67
2023/05/18 23:56:26;;;;;;;;;;;;;;;10.72;57.13672;102933.4;;;;-68
2023/05/18 23:59:51;;;;;;;0.2;0.1;;;;;;;;;;;;;-68
